createdAt,value
2022-09-12T00:00:53.767Z,51.62
2022-09-12T00:03:20.852Z,51.93
2022-09-12T00:05:47.924Z,51.54
2022-09-12T00:08:14.942Z,51.82
2022-09-12T00:10:41.998Z,51.83
2022-09-12T00:13:08.999Z,51.76
2022-09-12T00:15:35.988Z,51.79
2022-09-12T00:18:02.983Z,51.79
2022-09-12T00:20:29.970Z,51.79
2022-09-12T00:22:56.987Z,51.79
2022-09-12T00:25:23.987Z,51.56
2022-09-12T00:27:50.988Z,51.79
2022-09-12T00:30:17.978Z,51.77
2022-09-12T00:32:45.119Z,51.93
2022-09-12T00:35:13.000Z,51.85
2022-09-12T00:37:40.039Z,51.62
2022-09-12T00:40:07.120Z,51.49
2022-09-12T00:42:34.178Z,51.72
2022-09-12T00:45:01.202Z,51.57
2022-09-12T00:47:28.271Z,51.48
2022-09-12T00:49:55.468Z,51.71
2022-09-12T00:52:22.459Z,51.56
2022-09-12T00:54:49.515Z,51.34
2022-09-12T00:57:16.510Z,51.40
2022-09-12T00:59:43.609Z,51.39
2022-09-12T01:02:10.719Z,51.50
2022-09-12T01:04:37.763Z,51.27
2022-09-12T01:07:04.773Z,51.37
2022-09-12T01:09:31.788Z,51.51
2022-09-12T01:11:58.859Z,51.44
2022-09-12T01:14:25.899Z,51.27
2022-09-12T01:16:52.941Z,51.31
2022-09-12T01:19:20.240Z,51.12
2022-09-12T01:21:47.231Z,51.31
2022-09-12T01:24:14.247Z,51.24
2022-09-12T01:26:41.240Z,51.17
2022-09-12T01:29:08.240Z,51.02
2022-09-12T01:31:35.263Z,51.16
2022-09-12T01:34:02.266Z,51.08
2022-09-12T01:36:29.549Z,50.99
2022-09-12T01:38:56.621Z,50.98
2022-09-12T01:41:23.743Z,51.14
2022-09-12T01:43:50.794Z,50.83
2022-09-12T01:46:17.867Z,50.97
2022-09-12T01:48:44.929Z,50.68
2022-09-12T01:51:11.935Z,50.97
2022-09-12T01:53:38.936Z,51.09
2022-09-12T01:56:06.472Z,50.97
2022-09-12T01:58:34.440Z,50.76
2022-09-12T02:01:01.539Z,50.73
2022-09-12T02:03:29.302Z,50.92
2022-09-12T02:05:56.318Z,50.66
2022-09-12T02:08:23.344Z,50.62
2022-09-12T02:10:50.658Z,50.57
2022-09-12T02:13:17.659Z,50.65
2022-09-12T02:15:44.664Z,50.40
2022-09-12T02:18:12.154Z,50.61
2022-09-12T02:20:54.364Z,50.44
2022-09-12T02:23:21.490Z,50.46
2022-09-12T02:25:48.487Z,50.33
2022-09-12T02:28:15.483Z,50.44
2022-09-12T02:30:42.516Z,50.34
2022-09-12T02:33:09.539Z,50.37
2022-09-12T02:35:36.811Z,50.46
2022-09-12T02:38:03.847Z,50.37
2022-09-12T02:40:31.171Z,50.08
2022-09-12T02:42:58.367Z,50.32
2022-09-12T02:45:25.391Z,50.17
2022-09-12T02:47:52.399Z,50.51
2022-09-12T02:50:19.407Z,50.03
2022-09-12T02:52:46.505Z,49.99
2022-09-12T02:55:13.494Z,49.98
2022-09-12T02:57:40.510Z,50.08
2022-09-12T03:00:07.663Z,50.20
2022-09-12T03:02:34.756Z,50.00
2022-09-12T03:05:01.750Z,49.89
2022-09-12T03:07:28.759Z,50.00
2022-09-12T03:09:58.388Z,49.88
2022-09-12T03:12:25.405Z,49.94
2022-09-12T03:14:52.548Z,49.87
2022-09-12T03:17:19.538Z,49.85
2022-09-12T03:19:47.537Z,49.83
2022-09-12T03:22:14.634Z,49.62
2022-09-12T03:24:41.731Z,49.67
2022-09-12T03:27:09.045Z,49.41
2022-09-12T03:29:36.079Z,49.49
2022-09-12T03:32:03.079Z,49.62
2022-09-12T03:34:30.066Z,49.57
2022-09-12T03:36:57.287Z,49.23
2022-09-12T03:39:24.569Z,49.57
2022-09-12T03:41:51.610Z,49.35
2022-09-12T03:44:18.627Z,49.19
2022-09-12T03:46:45.631Z,49.26
2022-09-12T03:49:12.665Z,49.35
2022-09-12T03:51:39.727Z,49.51
2022-09-12T03:54:06.722Z,49.07
2022-09-12T03:56:34.531Z,49.21
2022-09-12T03:59:01.530Z,49.18
2022-09-12T04:01:28.682Z,49.08
2022-09-12T04:03:55.706Z,49.29
2022-09-12T04:06:22.703Z,48.92
2022-09-12T04:08:50.547Z,48.95
2022-09-12T04:11:17.553Z,49.03
2022-09-12T04:13:44.798Z,48.95
2022-09-12T04:16:12.151Z,49.08
2022-09-12T04:18:39.219Z,49.09
2022-09-12T04:21:06.239Z,49.11
2022-09-12T04:23:33.269Z,49.05
2022-09-12T04:26:00.275Z,49.03
2022-09-12T04:28:28.994Z,48.93
2022-09-12T04:30:56.069Z,48.95
2022-09-12T04:33:23.079Z,48.96
2022-09-12T04:35:50.375Z,48.92
2022-09-12T04:38:17.454Z,48.81
2022-09-12T04:40:44.474Z,48.89
2022-09-12T04:43:14.568Z,48.88
2022-09-12T04:45:41.800Z,48.74
2022-09-12T04:48:08.838Z,48.85
2022-09-12T04:50:35.841Z,48.72
2022-09-12T04:53:02.842Z,48.83
2022-09-12T04:55:29.831Z,48.82
2022-09-12T04:57:56.839Z,48.85
2022-09-12T05:00:24.610Z,48.66
2022-09-12T05:02:51.747Z,48.84
2022-09-12T05:05:18.740Z,48.62
2022-09-12T05:07:45.721Z,48.76
2022-09-12T05:10:12.713Z,48.87
2022-09-12T05:12:39.770Z,48.58
2022-09-12T05:15:06.754Z,48.83
2022-09-12T05:17:33.757Z,48.83
2022-09-12T05:20:00.784Z,48.68
2022-09-12T05:22:27.787Z,48.76
2022-09-12T05:24:54.861Z,48.60
2022-09-12T05:27:21.874Z,48.64
2022-09-12T05:29:48.867Z,48.69
2022-09-12T05:32:15.872Z,48.83
2022-09-12T05:34:42.887Z,48.54
2022-09-12T05:37:09.891Z,48.61
2022-09-12T05:39:36.887Z,48.49
2022-09-12T05:42:03.921Z,48.70
2022-09-12T05:44:30.991Z,48.70
2022-09-12T05:46:57.987Z,48.65
2022-09-12T05:49:24.979Z,48.74
2022-09-12T05:51:52.139Z,48.74
2022-09-12T05:54:20.425Z,48.75
2022-09-12T05:56:47.458Z,48.75
2022-09-12T05:59:14.483Z,48.64
2022-09-12T06:01:41.638Z,48.79
2022-09-12T06:04:08.930Z,48.62
2022-09-12T06:06:36.453Z,48.60
2022-09-12T06:09:03.675Z,48.63
2022-09-12T06:11:30.664Z,48.51
2022-09-12T06:13:57.957Z,48.67
2022-09-12T06:16:25.991Z,48.84
2022-09-12T06:18:53.735Z,48.55
2022-09-12T06:21:20.775Z,48.69
2022-09-12T06:23:48.139Z,48.74
2022-09-12T06:26:15.343Z,48.92
2022-09-12T06:28:42.407Z,48.66
2022-09-12T06:31:09.611Z,48.90
2022-09-12T06:33:36.690Z,48.60
2022-09-12T06:36:06.947Z,48.98
2022-09-12T06:38:37.219Z,48.97
2022-09-12T06:41:05.026Z,48.95
2022-09-12T06:43:32.400Z,49.13
2022-09-12T06:45:59.528Z,49.13
2022-09-12T06:48:26.539Z,49.31
2022-09-12T06:50:53.524Z,49.28
2022-09-12T06:53:20.564Z,49.46
2022-09-12T06:55:48.239Z,49.33
2022-09-12T06:58:15.225Z,49.33
2022-09-12T07:00:42.225Z,49.53
2022-09-12T07:03:09.218Z,49.35
2022-09-12T07:05:37.410Z,49.48
2022-09-12T07:08:04.427Z,49.31
2022-09-12T07:10:31.421Z,49.49
2022-09-12T07:12:59.121Z,49.36
2022-09-12T07:15:27.353Z,49.40
2022-09-12T07:17:54.485Z,49.40
2022-09-12T07:20:21.574Z,49.25
2022-09-12T07:22:48.591Z,48.96
2022-09-12T07:25:15.580Z,49.08
2022-09-12T07:27:44.748Z,49.06
2022-09-12T07:30:14.118Z,49.22
2022-09-12T07:35:41.054Z,49.34
2022-09-12T07:38:08.119Z,49.34
2022-09-12T07:40:35.119Z,49.11
2022-09-12T07:43:02.302Z,49.27
2022-09-12T07:45:29.708Z,49.32
2022-09-12T07:47:56.820Z,49.21
2022-09-12T07:50:23.876Z,49.31
2022-09-12T07:52:54.266Z,49.28
2022-09-12T07:55:21.284Z,49.22
2022-09-12T07:57:48.296Z,49.19
2022-09-12T08:00:15.549Z,49.38
2022-09-12T08:02:42.738Z,49.14
2022-09-12T08:05:09.883Z,49.28
2022-09-12T08:07:36.899Z,49.35
2022-09-12T08:10:04.054Z,49.30
2022-09-12T08:12:32.302Z,49.28
2022-09-12T08:14:59.321Z,49.29
2022-09-12T08:17:26.359Z,49.13
2022-09-12T08:19:53.467Z,49.07
2022-09-12T08:22:21.954Z,49.18
2022-09-12T08:24:49.668Z,48.91
2022-09-12T08:27:16.680Z,49.02
2022-09-12T08:29:43.724Z,49.16
2022-09-12T08:32:10.752Z,49.27
2022-09-12T08:34:37.740Z,49.17
2022-09-12T08:37:05.561Z,49.58
2022-09-12T08:39:33.252Z,49.47
2022-09-12T08:42:01.259Z,49.33
2022-09-12T08:44:28.469Z,49.40
2022-09-12T08:46:55.560Z,49.40
2022-09-12T08:49:22.905Z,49.63
2022-09-12T08:51:49.902Z,49.04
2022-09-12T08:54:16.898Z,49.42
2022-09-12T08:56:43.902Z,49.32
2022-09-12T08:59:10.899Z,49.42
2022-09-12T09:01:39.179Z,49.36
2022-09-12T09:04:06.523Z,49.25
2022-09-12T09:06:33.531Z,49.50
2022-09-12T09:09:00.607Z,49.31
2022-09-12T09:11:27.627Z,49.38
2022-09-12T09:14:13.440Z,49.32
2022-09-12T09:16:40.379Z,49.40
2022-09-12T09:19:07.371Z,49.29
2022-09-12T09:21:34.375Z,49.29
2022-09-12T09:24:01.354Z,49.25
2022-09-12T09:26:28.738Z,49.70
2022-09-12T09:28:55.766Z,49.51
2022-09-12T09:31:22.849Z,49.36
2022-09-12T09:33:50.879Z,49.64
2022-09-12T09:36:17.879Z,49.80
2022-09-12T09:38:44.949Z,49.57
2022-09-12T09:41:13.037Z,49.65
2022-09-12T09:43:40.047Z,49.86
2022-09-12T09:46:07.116Z,49.83
2022-09-12T09:48:34.209Z,49.94
2022-09-12T09:51:01.893Z,50.09
2022-09-12T09:53:28.924Z,49.77
2022-09-12T09:55:55.912Z,50.29
2022-09-12T09:58:22.903Z,50.12
2022-09-12T10:00:52.721Z,50.08
2022-09-12T10:03:23.339Z,50.26
2022-09-12T10:05:50.367Z,50.34
2022-09-12T10:08:17.431Z,50.31
2022-09-12T10:10:44.431Z,50.29
2022-09-12T10:13:11.899Z,50.28
2022-09-12T10:15:38.985Z,50.41
2022-09-12T10:18:06.060Z,50.35
2022-09-12T10:20:33.064Z,50.36
2022-09-12T10:23:00.078Z,50.08
2022-09-12T10:25:27.277Z,50.24
2022-09-12T10:27:54.516Z,50.50
2022-09-12T10:30:31.156Z,50.37
2022-09-12T10:32:59.010Z,50.65
2022-09-12T10:35:26.186Z,50.93
2022-09-12T10:37:53.223Z,50.66
2022-09-12T10:40:20.296Z,50.62
2022-09-12T10:42:47.444Z,50.80
2022-09-12T10:45:14.453Z,50.75
2022-09-12T10:47:41.666Z,50.72
2022-09-12T10:50:08.678Z,50.52
2022-09-12T10:52:35.663Z,50.68
2022-09-12T10:55:02.654Z,50.53
2022-09-12T10:57:29.655Z,50.44
2022-09-12T10:59:56.653Z,50.44
2022-09-12T11:02:23.687Z,50.71
2022-09-12T11:04:50.762Z,50.54
2022-09-12T11:07:17.773Z,50.42
2022-09-12T11:09:44.881Z,50.42
2022-09-12T11:12:12.162Z,50.33
2022-09-12T11:14:39.173Z,50.42
2022-09-12T11:17:06.258Z,50.58
2022-09-12T11:19:33.289Z,50.18
2022-09-12T11:22:00.346Z,50.06
2022-09-12T11:24:27.348Z,50.32
2022-09-12T11:26:54.403Z,50.04
2022-09-12T11:29:21.426Z,50.34
2022-09-12T11:31:48.442Z,50.22
2022-09-12T11:34:15.453Z,50.07
2022-09-12T11:36:42.456Z,50.00
2022-09-12T11:39:09.452Z,50.13
2022-09-12T11:41:36.815Z,49.90
2022-09-12T11:44:03.942Z,50.06
2022-09-12T11:46:31.092Z,49.69
2022-09-12T11:48:58.257Z,50.03
2022-09-12T11:51:25.746Z,49.85
2022-09-12T11:53:52.902Z,49.66
2022-09-12T11:56:19.926Z,49.80
2022-09-12T11:58:47.123Z,49.82
2022-09-12T12:01:14.402Z,49.76
2022-09-12T12:03:41.477Z,50.03
2022-09-12T12:06:08.628Z,49.67
2022-09-12T12:08:35.647Z,49.56
2022-09-12T12:11:02.812Z,49.86
2022-09-12T12:13:29.836Z,49.65
2022-09-12T12:15:57.347Z,49.39
2022-09-12T12:18:24.410Z,49.72
2022-09-12T12:20:51.439Z,49.53
2022-09-12T12:23:18.530Z,49.40
2022-09-12T12:25:45.520Z,49.57
2022-09-12T12:28:12.506Z,49.56
2022-09-12T12:30:39.510Z,49.17
2022-09-12T12:33:06.521Z,49.42
2022-09-12T12:35:33.506Z,49.22
2022-09-12T12:38:00.497Z,49.51
2022-09-12T12:40:27.483Z,49.66
2022-09-12T12:42:54.576Z,49.63
2022-09-12T12:45:21.586Z,49.44
2022-09-12T12:47:48.615Z,49.60
2022-09-12T12:50:15.630Z,49.22
2022-09-12T12:52:42.628Z,49.23
2022-09-12T12:55:09.611Z,49.19
2022-09-12T12:57:36.798Z,49.22
2022-09-12T13:00:04.564Z,49.25
2022-09-12T13:02:31.925Z,49.52
2022-09-12T13:04:59.244Z,49.33
2022-09-12T13:07:26.324Z,49.65
2022-09-12T13:09:53.336Z,49.09
2022-09-12T13:12:20.347Z,49.56
2022-09-12T13:14:50.279Z,49.11
2022-09-12T13:17:17.316Z,49.22
2022-09-12T13:19:44.340Z,49.33
2022-09-12T13:22:11.402Z,49.19
2022-09-12T13:24:38.887Z,49.08
2022-09-12T13:27:05.928Z,49.03
2022-09-12T13:29:33.138Z,48.76
2022-09-12T13:32:00.672Z,49.17
2022-09-12T13:34:27.806Z,48.76
2022-09-12T13:36:54.979Z,48.86
2022-09-12T13:39:22.099Z,48.79
2022-09-12T13:41:49.113Z,48.79
2022-09-12T13:44:16.196Z,48.82
2022-09-12T13:46:43.255Z,48.64
2022-09-12T13:49:10.250Z,48.58
2022-09-12T13:51:37.244Z,48.88
2022-09-12T13:54:04.243Z,48.80
2022-09-12T13:56:31.683Z,48.81
2022-09-12T13:58:58.832Z,48.65
2022-09-12T14:01:25.906Z,48.93
2022-09-12T14:04:11.774Z,48.85
2022-09-12T14:06:39.066Z,48.90
2022-09-12T14:09:06.067Z,48.63
2022-09-12T14:11:33.911Z,48.82
2022-09-12T14:14:00.942Z,48.51
2022-09-12T14:16:29.034Z,48.47
2022-09-12T14:18:56.182Z,48.71
2022-09-12T14:21:23.626Z,48.96
2022-09-12T14:23:50.619Z,48.77
2022-09-12T14:26:22.213Z,48.87
2022-09-12T14:28:49.371Z,48.45
2022-09-12T14:31:16.820Z,48.50
2022-09-12T14:33:43.866Z,48.93
2022-09-12T14:36:11.119Z,48.58
2022-09-12T14:38:38.115Z,48.85
2022-09-12T14:41:05.135Z,48.74
2022-09-12T14:43:32.141Z,48.56
2022-09-12T14:45:59.801Z,48.35
2022-09-12T14:48:26.991Z,48.46
2022-09-12T14:50:53.979Z,48.34
2022-09-12T14:53:20.966Z,47.83
2022-09-12T14:55:47.980Z,48.47
2022-09-12T14:58:15.389Z,48.01
2022-09-12T15:00:42.379Z,48.30
2022-09-12T15:03:09.379Z,48.13
2022-09-12T15:05:36.456Z,48.02
2022-09-12T15:08:03.469Z,48.03
2022-09-12T15:10:31.451Z,47.99
2022-09-12T15:12:58.500Z,48.36
2022-09-12T15:15:25.496Z,47.99
2022-09-12T15:17:52.487Z,47.93
2022-09-12T15:20:19.495Z,48.22
2022-09-12T15:22:46.478Z,48.12
2022-09-12T15:25:13.571Z,47.97
2022-09-12T15:27:40.988Z,48.12
2022-09-12T15:30:08.107Z,47.84
2022-09-12T15:32:35.097Z,47.76
2022-09-12T15:35:02.213Z,48.11
2022-09-12T15:37:29.213Z,47.76
2022-09-12T15:39:56.249Z,47.68
2022-09-12T15:42:23.287Z,47.81
2022-09-12T15:44:50.452Z,47.84
2022-09-12T15:47:17.464Z,47.90
2022-09-12T15:49:44.450Z,47.86
2022-09-12T15:52:11.488Z,47.64
2022-09-12T15:54:38.882Z,47.70
2022-09-12T15:57:06.114Z,48.02
2022-09-12T15:59:33.190Z,47.95
2022-09-12T16:02:00.349Z,47.64
2022-09-12T16:04:27.400Z,48.07
2022-09-12T16:06:54.668Z,47.71
2022-09-12T16:09:21.677Z,47.64
2022-09-12T16:11:48.731Z,47.48
2022-09-12T16:14:15.753Z,47.60
2022-09-12T16:16:42.775Z,47.42
2022-09-12T16:19:12.799Z,47.91
2022-09-12T16:21:39.796Z,47.81
2022-09-12T16:24:06.836Z,47.65
2022-09-12T16:26:34.105Z,47.65
2022-09-12T16:29:01.268Z,47.78
2022-09-12T16:31:28.937Z,47.47
2022-09-12T16:33:56.028Z,48.02
2022-09-12T16:36:23.019Z,47.64
2022-09-12T16:38:50.070Z,47.53
2022-09-12T16:41:17.134Z,48.27
2022-09-12T16:43:44.206Z,48.11
2022-09-12T16:46:11.469Z,48.13
2022-09-12T16:48:38.511Z,47.91
2022-09-12T16:51:05.893Z,47.98
2022-09-12T16:53:33.103Z,47.71
2022-09-12T16:56:00.115Z,47.91
2022-09-12T16:58:27.688Z,47.96
2022-09-12T17:00:54.692Z,47.60
2022-09-12T17:03:21.713Z,47.85
2022-09-12T17:05:48.719Z,48.00
2022-09-12T17:08:16.311Z,47.66
2022-09-12T17:10:43.308Z,47.98
2022-09-12T17:13:10.307Z,47.72
2022-09-12T17:15:37.463Z,48.04
2022-09-12T17:18:04.525Z,48.31
2022-09-12T17:20:31.524Z,47.59
2022-09-12T17:22:58.531Z,47.97
2022-09-12T17:25:27.683Z,47.81
2022-09-12T17:27:59.701Z,48.04
2022-09-12T17:30:26.738Z,48.23
2022-09-12T17:32:54.287Z,47.88
2022-09-12T17:35:21.294Z,47.99
2022-09-12T17:37:48.436Z,47.98
2022-09-12T17:40:15.587Z,48.26
2022-09-12T17:42:43.277Z,48.06
2022-09-12T17:45:12.290Z,48.47
2022-09-12T17:47:43.090Z,48.48
2022-09-12T17:50:30.765Z,48.13
2022-09-12T17:52:57.646Z,48.54
2022-09-12T17:55:24.644Z,48.70
2022-09-12T17:57:52.335Z,48.72
2022-09-12T18:00:39.288Z,48.71
2022-09-12T18:03:06.398Z,48.44
2022-09-12T18:05:33.483Z,48.67
2022-09-12T18:08:00.486Z,48.46
2022-09-12T18:10:27.914Z,48.89
2022-09-12T18:12:54.940Z,48.77
2022-09-12T18:15:22.644Z,48.92
2022-09-12T18:17:49.650Z,49.05
2022-09-12T18:20:16.689Z,48.92
2022-09-12T18:22:43.912Z,48.99
2022-09-12T18:25:10.943Z,48.79
2022-09-12T18:27:37.931Z,48.91
2022-09-12T18:30:20.626Z,49.04
2022-09-12T18:32:48.793Z,49.08
2022-09-12T18:35:15.777Z,48.84
2022-09-12T18:37:42.908Z,48.83
2022-09-12T18:40:09.995Z,49.08
2022-09-12T18:42:37.071Z,49.07
2022-09-12T18:45:04.082Z,49.34
2022-09-12T18:47:31.079Z,49.09
2022-09-12T18:49:58.126Z,49.39
2022-09-12T18:52:25.126Z,49.23
2022-09-12T18:54:52.120Z,49.00
2022-09-12T18:57:19.274Z,49.32
2022-09-12T18:59:46.264Z,49.41
2022-09-12T19:02:13.317Z,49.52
2022-09-12T19:04:40.387Z,49.43
2022-09-12T19:07:07.383Z,49.66
2022-09-12T19:09:34.372Z,49.36
2022-09-12T19:12:01.421Z,49.64
2022-09-12T19:14:28.437Z,49.35
2022-09-12T19:16:55.754Z,49.59
2022-09-12T19:19:22.976Z,49.59
2022-09-12T19:21:49.966Z,49.83
2022-09-12T19:24:17.298Z,49.81
2022-09-12T19:26:44.757Z,49.59
2022-09-12T19:29:11.759Z,49.56
2022-09-12T19:31:38.854Z,49.55
2022-09-12T19:34:05.951Z,49.54
2022-09-12T19:36:48.352Z,49.43
2022-09-12T19:39:15.376Z,49.92
2022-09-12T19:41:42.689Z,49.54
2022-09-12T19:44:09.697Z,49.65
2022-09-12T19:46:36.759Z,49.81
2022-09-12T19:49:03.862Z,49.68
2022-09-12T19:51:31.464Z,49.83
2022-09-12T19:53:58.826Z,49.84
2022-09-12T19:56:25.857Z,49.80
2022-09-12T19:58:56.430Z,49.68
2022-09-12T20:01:30.198Z,49.73
2022-09-12T20:03:57.350Z,50.08
2022-09-12T20:06:24.368Z,49.94
2022-09-12T20:08:51.360Z,49.88
2022-09-12T20:11:18.386Z,50.27
2022-09-12T20:13:45.372Z,50.04
2022-09-12T20:16:15.757Z,50.04
2022-09-12T20:18:44.841Z,50.08
2022-09-12T20:21:11.960Z,50.19
2022-09-12T20:23:40.731Z,50.27
2022-09-12T20:26:07.766Z,50.27
2022-09-12T20:28:34.830Z,49.96
2022-09-12T20:31:01.935Z,50.31
2022-09-12T20:33:29.008Z,50.30
2022-09-12T20:35:55.995Z,50.13
2022-09-12T20:38:22.994Z,50.18
2022-09-12T20:40:50.005Z,50.45
2022-09-12T20:43:17.039Z,50.07
2022-09-12T20:45:44.036Z,50.58
2022-09-12T20:48:11.022Z,50.53
2022-09-12T20:50:38.010Z,50.32
2022-09-12T20:53:05.317Z,50.36
2022-09-12T20:55:32.351Z,50.35
2022-09-12T20:57:59.341Z,50.25
2022-09-12T21:00:26.331Z,50.63
2022-09-12T21:02:53.375Z,50.70
2022-09-12T21:05:20.454Z,50.65
2022-09-12T21:07:47.454Z,50.50
2022-09-12T21:10:14.461Z,50.35
2022-09-12T21:12:41.457Z,50.36
2022-09-12T21:15:08.751Z,50.60
2022-09-12T21:17:35.744Z,50.77
2022-09-12T21:20:02.740Z,50.77
2022-09-12T21:22:29.733Z,50.48
2022-09-12T21:24:56.731Z,50.75
2022-09-12T21:27:23.737Z,50.89
2022-09-12T21:29:50.800Z,50.72
2022-09-12T21:32:17.811Z,50.78
2022-09-12T21:34:44.884Z,50.54
2022-09-12T21:37:11.895Z,50.96
2022-09-12T21:39:38.933Z,50.72
2022-09-12T21:42:05.964Z,50.78
2022-09-12T21:44:33.015Z,50.59
2022-09-12T21:47:00.030Z,50.85
2022-09-12T21:49:27.014Z,50.91
2022-09-12T21:51:53.995Z,50.92
2022-09-12T21:54:20.987Z,51.04
2022-09-12T21:56:48.650Z,50.67
2022-09-12T21:59:15.646Z,50.82
2022-09-12T22:01:42.851Z,50.99
2022-09-12T22:04:09.985Z,50.91
2022-09-12T22:06:36.987Z,50.73
2022-09-12T22:09:03.975Z,51.02
2022-09-12T22:11:31.087Z,50.82
2022-09-12T22:13:58.176Z,50.93
2022-09-12T22:16:25.203Z,51.14
2022-09-12T22:18:52.718Z,50.94
2022-09-12T22:21:19.719Z,50.83
2022-09-12T22:24:05.460Z,50.96
2022-09-12T22:26:36.450Z,50.83
2022-09-12T22:29:03.438Z,51.09
2022-09-12T22:31:31.081Z,51.01
2022-09-12T22:33:58.979Z,51.08
2022-09-12T22:36:30.508Z,51.18
2022-09-12T22:38:58.229Z,51.05
2022-09-12T22:41:25.277Z,51.21
2022-09-12T22:43:52.269Z,51.17
2022-09-12T22:46:19.320Z,51.17
2022-09-12T22:48:46.821Z,51.16
2022-09-12T22:51:13.948Z,51.05
2022-09-12T22:53:40.946Z,51.25
2022-09-12T22:56:07.963Z,51.07
2022-09-12T22:58:37.278Z,51.20
2022-09-12T23:01:04.354Z,51.12
2022-09-12T23:03:31.830Z,51.29
2022-09-12T23:05:59.036Z,50.98
2022-09-12T23:08:29.728Z,51.24
2022-09-12T23:10:56.798Z,51.16
2022-09-12T23:13:23.789Z,51.01
2022-09-12T23:15:50.834Z,51.08
2022-09-12T23:18:17.864Z,51.12
2022-09-12T23:20:44.852Z,51.15
2022-09-12T23:23:11.844Z,51.35
2022-09-12T23:25:38.912Z,51.13
2022-09-12T23:28:05.914Z,51.11
2022-09-12T23:30:32.902Z,51.23
2022-09-12T23:33:00.459Z,51.07
2022-09-12T23:35:27.451Z,51.16
2022-09-12T23:37:54.446Z,51.32
2022-09-12T23:40:21.575Z,51.25
2022-09-12T23:42:48.611Z,51.15
2022-09-12T23:45:15.604Z,50.97
2022-09-12T23:47:42.590Z,51.04
2022-09-12T23:50:09.584Z,50.97
2022-09-12T23:52:37.056Z,51.21
2022-09-12T23:55:04.070Z,51.14
2022-09-12T23:57:31.066Z,51.11
2022-09-12T23:59:58.253Z,51.52
